Time;durP1;ratioP1;P1;durP2;ratioP2;P2;SDS_P1;SDS_P2;PMS_P1;PMS_P2;Temp;Humidity;BMP_temperature;BMP_pressure;BME280_temperature;BME280_humidity;BME280_pressure;Samples;Min_cycle;Max_cycle;Signal;HPM_P1;HPM_P2
2021/03/13 00:00:46;;;;;;;;;;;11.20;45.30;;;;;;4931995;28;76769;-72
2021/03/13 00:03:11;;;;;;;;;;;11.10;44.30;;;;;;4932281;28;76343;-72
2021/03/13 00:05:38;;;;;;;;;;;11.00;44.60;;;;;;4932480;28;75820;-71
2021/03/13 00:08:04;;;;;;;;;;;10.90;44.50;;;;;;4932373;28;74494;-70
2021/03/13 00:10:30;;;;;;;;;;;10.90;44.50;;;;;;4932466;28;75097;-71
2021/03/13 00:12:56;;;;;;;;;;;10.90;44.40;;;;;;4932119;28;75233;-69
2021/03/13 00:15:22;;;;;;;;;;;10.90;44.60;;;;;;4931975;28;76358;-71
2021/03/13 00:17:49;;;;;;;;;;;10.80;45.40;;;;;;4931814;28;76476;-67
2021/03/13 00:20:16;;;;;;;;;;;10.70;45.80;;;;;;4932210;28;74982;-68
2021/03/13 00:22:42;;;;;;;;;;;10.60;45.50;;;;;;4932111;28;76955;-67
2021/03/13 00:25:09;;;;;;;;;;;10.50;46.20;;;;;;4934644;28;74616;-66
2021/03/13 00:27:47;;;;;;;;;;;10.40;46.30;;;;;;4934370;28;74395;-67
2021/03/13 00:30:19;;;;;;;;;;;10.30;46.30;;;;;;4932143;28;75362;-67
2021/03/13 00:32:47;;;;;;;;;;;10.10;48.00;;;;;;4931946;28;75301;-66
2021/03/13 00:35:13;;;;;;;;;;;10.00;47.00;;;;;;4932101;28;74679;-68
2021/03/13 00:37:39;;;;;;;;;;;9.90;47.80;;;;;;4931929;28;74439;-68
2021/03/13 00:40:05;;;;;;;;;;;9.80;47.70;;;;;;4930463;28;77636;-69
2021/03/13 00:42:31;;;;;;;;;;;9.70;47.80;;;;;;4931641;28;77091;-69
2021/03/13 00:44:57;;;;;;;;;;;9.60;47.70;;;;;;4931958;28;75120;-68
2021/03/13 00:47:23;;;;;;;;;;;9.50;48.40;;;;;;4929968;28;75359;-67
2021/03/13 00:49:51;;;;;;;;;;;9.40;48.40;;;;;;4931741;28;75144;-69
2021/03/13 00:52:17;;;;;;;;;;;9.40;48.00;;;;;;4931876;28;75211;-72
2021/03/13 00:54:42;;;;;;;;;;;9.30;48.70;;;;;;4864561;28;1885134;-71
2021/03/13 00:57:08;;;;;;;;;;;9.30;48.20;;;;;;4931433;28;74401;-70
2021/03/13 00:59:34;;;;;;;;;;;9.30;50.00;;;;;;4932259;28;74739;-67
2021/03/13 01:01:59;;;;;;;;;;;9.20;48.90;;;;;;4931215;28;74697;-72
2021/03/13 01:04:25;;;;;;;;;;;9.20;48.60;;;;;;4932903;28;75092;-71
2021/03/13 01:06:50;;;;;;;;;;;9.20;48.90;;;;;;4932494;28;75348;-70
2021/03/13 01:09:16;;;;;;;;;;;9.20;49.60;;;;;;4932767;28;75273;-67
2021/03/13 01:11:42;;;;;;;;;;;9.10;49.50;;;;;;4932486;28;74898;-67
2021/03/13 01:14:08;;;;;;;;;;;9.00;50.10;;;;;;4932269;28;74899;-66
2021/03/13 01:16:33;;;;;;;;;;;8.90;50.30;;;;;;4932394;28;74915;-65
2021/03/13 01:18:59;;;;;;;;;;;8.90;51.00;;;;;;4931511;28;76875;-65
2021/03/13 01:21:25;;;;;;;;;;;8.80;51.60;;;;;;4932613;28;75081;-68
2021/03/13 01:23:50;;;;;;;;;;;8.70;50.70;;;;;;4931135;28;75334;-66
2021/03/13 01:26:16;;;;;;;;;;;8.60;51.50;;;;;;4932288;28;75092;-68
2021/03/13 01:28:42;;;;;;;;;;;8.60;50.90;;;;;;4930916;28;77853;-67
2021/03/13 01:31:07;;;;;;;;;;;8.50;50.50;;;;;;4931442;28;75138;-69
2021/03/13 01:33:33;;;;;;;;;;;8.50;50.50;;;;;;4932159;28;75436;-67
2021/03/13 01:35:58;;;;;;;;;;;8.60;51.00;;;;;;4930750;28;75551;-66
2021/03/13 01:38:24;;;;;;;;;;;8.60;51.80;;;;;;4932618;28;75029;-65
2021/03/13 01:40:49;;;;;;;;;;;8.50;51.40;;;;;;4932186;28;75085;-65
2021/03/13 01:43:15;;;;;;;;;;;8.50;50.70;;;;;;4930723;28;74641;-65
2021/03/13 01:45:41;;;;;;;;;;;8.60;50.60;;;;;;4931865;28;74506;-67
2021/03/13 01:48:07;;;;;;;;;;;8.60;51.30;;;;;;4932117;28;75150;-66
2021/03/13 01:50:33;;;;;;;;;;;8.50;51.30;;;;;;4931887;28;75105;-66
2021/03/13 01:52:58;;;;;;;;;;;8.40;51.50;;;;;;4931730;28;75248;-66
2021/03/13 01:55:24;;;;;;;;;;;8.40;51.20;;;;;;4931668;28;75138;-66
2021/03/13 01:57:50;;;;;;;;;;;8.40;51.00;;;;;;4932314;28;75307;-66
2021/03/13 02:00:18;;;;;;;;;;;8.40;52.20;;;;;;4931567;28;75759;-67
2021/03/13 02:02:44;;;;;;;;;;;8.30;52.70;;;;;;4931768;28;75283;-66
2021/03/13 02:05:48;;;;;;;;;;;8.20;52.00;;;;;;4931774;28;75074;-65
2021/03/13 02:08:16;;;;;;;;;;;8.10;51.60;;;;;;4910202;28;75184;-66
2021/03/13 02:10:47;;;;;;;;;;;8.20;52.20;;;;;;4910366;28;76567;-66
2021/03/13 02:13:13;;;;;;;;;;;8.00;53.20;;;;;;4920987;28;75493;-67
2021/03/13 02:15:50;;;;;;;;;;;8.00;52.10;;;;;;4931594;28;74503;-66
2021/03/13 02:18:21;;;;;;;;;;;8.00;52.00;;;;;;4929951;28;75895;-67
2021/03/13 02:20:47;;;;;;;;;;;8.00;51.80;;;;;;4931605;28;75257;-68
2021/03/13 02:23:17;;;;;;;;;;;7.90;52.60;;;;;;4930285;28;75616;-67
2021/03/13 02:26:04;;;;;;;;;;;7.90;52.80;;;;;;4931566;28;75226;-67
2021/03/13 02:28:41;;;;;;;;;;;7.90;52.40;;;;;;4932785;28;75072;-68
2021/03/13 02:31:07;;;;;;;;;;;7.90;52.10;;;;;;4931214;28;75095;-66
2021/03/13 02:33:35;;;;;;;;;;;7.90;53.20;;;;;;4931479;28;75136;-67
2021/03/13 02:36:10;;;;;;;;;;;7.90;52.20;;;;;;4931272;28;75226;-66
2021/03/13 02:38:43;;;;;;;;;;;7.90;52.20;;;;;;4931432;28;75003;-69
2021/03/13 02:41:20;;;;;;;;;;;7.90;52.60;;;;;;4931161;28;75266;-69
2021/03/13 02:43:50;;;;;;;;;;;7.90;52.70;;;;;;4931221;28;75314;-68
2021/03/13 02:46:21;;;;;;;;;;;7.90;52.40;;;;;;4931234;28;75378;-68
2021/03/13 02:48:47;;;;;;;;;;;7.80;52.20;;;;;;4931194;28;75235;-70
2021/03/13 02:51:18;;;;;;;;;;;7.90;52.70;;;;;;4931614;28;74439;-68
2021/03/13 02:53:45;;;;;;;;;;;7.70;54.20;;;;;;4931170;28;74658;-68
2021/03/13 02:56:11;;;;;;;;;;;7.50;53.70;;;;;;4931235;28;75375;-68
2021/03/13 02:58:37;;;;;;;;;;;7.40;53.40;;;;;;4930799;28;75350;-68
2021/03/13 03:01:03;;;;;;;;;;;7.40;53.60;;;;;;4931807;28;74398;-68
2021/03/13 03:03:29;;;;;;;;;;;7.40;53.60;;;;;;4931077;28;74572;-71
2021/03/13 03:05:55;;;;;;;;;;;7.40;53.90;;;;;;4930772;28;75042;-68
2021/03/13 03:08:21;;;;;;;;;;;7.40;54.20;;;;;;4931281;28;75390;-68
2021/03/13 03:10:47;;;;;;;;;;;7.30;53.80;;;;;;4931051;28;74666;-68
2021/03/13 03:13:13;;;;;;;;;;;7.30;54.30;;;;;;4930880;28;74977;-68
2021/03/13 03:15:39;;;;;;;;;;;7.30;53.90;;;;;;4931054;28;74479;-69
2021/03/13 03:18:07;;;;;;;;;;;7.20;54.20;;;;;;4930635;28;75302;-69
2021/03/13 03:20:34;;;;;;;;;;;7.20;54.10;;;;;;4931176;28;74517;-69
2021/03/13 03:23:00;;;;;;;;;;;7.20;53.70;;;;;;4930635;28;74549;-68
2021/03/13 03:25:25;;;;;;;;;;;7.30;53.80;;;;;;4930575;28;74840;-70
2021/03/13 03:27:51;;;;;;;;;;;7.30;54.30;;;;;;4930586;28;74983;-69
2021/03/13 03:30:21;;;;;;;;;;;7.20;54.00;;;;;;4930476;28;74934;-69
2021/03/13 03:32:47;;;;;;;;;;;7.20;54.00;;;;;;4930351;28;75301;-67
2021/03/13 03:35:13;;;;;;;;;;;7.20;54.60;;;;;;4930480;28;75117;-67
2021/03/13 03:37:39;;;;;;;;;;;7.00;55.60;;;;;;4930349;28;75395;-66
2021/03/13 03:40:05;;;;;;;;;;;7.00;55.70;;;;;;4930128;28;75147;-67
2021/03/13 03:42:31;;;;;;;;;;;6.90;55.10;;;;;;4930656;28;74464;-69
2021/03/13 03:44:58;;;;;;;;;;;7.00;55.10;;;;;;4930123;28;74889;-69
2021/03/13 03:47:25;;;;;;;;;;;7.00;54.70;;;;;;4930383;28;74512;-70
2021/03/13 03:49:50;;;;;;;;;;;7.00;54.40;;;;;;4930388;28;75161;-69
2021/03/13 03:52:16;;;;;;;;;;;7.00;54.20;;;;;;4930339;28;74609;-70
2021/03/13 03:54:42;;;;;;;;;;;7.10;54.40;;;;;;4929318;28;75299;-69
2021/03/13 03:57:09;;;;;;;;;;;7.00;54.80;;;;;;4933054;28;74928;-70
2021/03/13 03:59:35;;;;;;;;;;;7.00;55.60;;;;;;4915430;28;76304;-70
2021/03/13 04:02:01;;;;;;;;;;;6.90;55.10;;;;;;4933108;28;75196;-69
2021/03/13 04:04:27;;;;;;;;;;;6.90;55.00;;;;;;4933265;28;75441;-70
2021/03/13 04:06:53;;;;;;;;;;;6.90;54.60;;;;;;4933716;28;74380;-70
2021/03/13 04:09:26;;;;;;;;;;;6.90;55.30;;;;;;4933007;28;74965;-69
2021/03/13 04:11:53;;;;;;;;;;;6.80;56.10;;;;;;4932976;28;75248;-69
2021/03/13 04:14:19;;;;;;;;;;;6.80;55.30;;;;;;4932527;28;75671;-70
2021/03/13 04:16:44;;;;;;;;;;;6.80;55.40;;;;;;4932942;28;75043;-68
2021/03/13 04:19:10;;;;;;;;;;;6.70;55.10;;;;;;4933085;28;75364;-69
2021/03/13 04:21:36;;;;;;;;;;;6.80;55.20;;;;;;4933273;28;75039;-69
2021/03/13 04:24:02;;;;;;;;;;;6.70;55.70;;;;;;4933218;28;75315;-69
2021/03/13 04:26:29;;;;;;;;;;;6.70;56.70;;;;;;4935338;28;75678;-68
2021/03/13 04:28:55;;;;;;;;;;;6.60;56.20;;;;;;4934687;28;74382;-69
2021/03/13 04:31:26;;;;;;;;;;;6.50;56.90;;;;;;4931341;28;75210;-69
2021/03/13 04:33:52;;;;;;;;;;;6.50;57.60;;;;;;4933000;28;75371;-66
2021/03/13 04:36:18;;;;;;;;;;;6.50;57.00;;;;;;4932470;28;74980;-67
2021/03/13 04:38:44;;;;;;;;;;;6.50;57.10;;;;;;4931567;28;74613;-67
2021/03/13 04:41:11;;;;;;;;;;;6.50;57.20;;;;;;4932797;28;74381;-67
2021/03/13 04:43:37;;;;;;;;;;;6.40;58.40;;;;;;4931966;28;76851;-68
2021/03/13 04:46:02;;;;;;;;;;;6.30;58.40;;;;;;4932694;28;74486;-68
2021/03/13 04:48:30;;;;;;;;;;;6.20;58.10;;;;;;4932543;28;75610;-68
2021/03/13 04:50:57;;;;;;;;;;;6.30;57.30;;;;;;4932610;28;75192;-68
2021/03/13 04:53:22;;;;;;;;;;;6.30;57.50;;;;;;4932130;28;75171;-71
2021/03/13 04:55:48;;;;;;;;;;;6.30;58.00;;;;;;4932697;28;75101;-68
2021/03/13 04:58:14;;;;;;;;;;;6.30;57.80;;;;;;4931426;28;75010;-69
2021/03/13 05:00:39;;;;;;;;;;;6.30;57.60;;;;;;4932357;28;75156;-70
2021/03/13 05:03:05;;;;;;;;;;;6.20;58.00;;;;;;4932696;28;75117;-70
2021/03/13 05:05:33;;;;;;;;;;;6.10;58.30;;;;;;4931708;28;75121;-70
2021/03/13 05:07:59;;;;;;;;;;;6.00;58.30;;;;;;4931786;28;75189;-69
2021/03/13 05:10:25;;;;;;;;;;;6.00;59.00;;;;;;4930711;28;75220;-70
2021/03/13 05:12:51;;;;;;;;;;;6.00;59.40;;;;;;4931938;28;75689;-69
2021/03/13 05:15:17;;;;;;;;;;;5.90;58.90;;;;;;4932152;28;75138;-69
2021/03/13 05:17:43;;;;;;;;;;;5.80;60.30;;;;;;4931894;28;74611;-67
2021/03/13 05:20:08;;;;;;;;;;;5.70;60.30;;;;;;4930615;28;75433;-67
2021/03/13 05:22:34;;;;;;;;;;;5.60;60.00;;;;;;4932536;28;74865;-66
2021/03/13 05:25:00;;;;;;;;;;;5.60;60.10;;;;;;4932427;28;75207;-66
2021/03/13 05:27:25;;;;;;;;;;;5.60;59.80;;;;;;4932273;28;74992;-67
2021/03/13 05:29:51;;;;;;;;;;;5.60;60.20;;;;;;4932016;28;75396;-66
2021/03/13 05:32:16;;;;;;;;;;;5.50;59.90;;;;;;4932548;28;74983;-66
2021/03/13 05:34:42;;;;;;;;;;;5.60;59.70;;;;;;4932061;28;75281;-65
2021/03/13 05:37:08;;;;;;;;;;;5.60;59.30;;;;;;4932186;28;74762;-67
2021/03/13 05:39:33;;;;;;;;;;;5.70;58.90;;;;;;4932660;28;74485;-63
2021/03/13 05:42:01;;;;;;;;;;;5.80;58.60;;;;;;4932143;28;75308;-66
2021/03/13 05:44:27;;;;;;;;;;;5.80;58.60;;;;;;4931874;28;75241;-66
2021/03/13 05:46:52;;;;;;;;;;;5.80;58.60;;;;;;4931829;28;75274;-66
2021/03/13 05:49:18;;;;;;;;;;;5.80;58.20;;;;;;4932131;28;75525;-67
2021/03/13 05:51:45;;;;;;;;;;;5.90;58.30;;;;;;4932029;28;75189;-66
2021/03/13 05:54:15;;;;;;;;;;;5.90;59.10;;;;;;4931607;28;75149;-68
2021/03/13 05:56:41;;;;;;;;;;;5.80;59.10;;;;;;4931672;28;75217;-67
2021/03/13 05:59:06;;;;;;;;;;;5.70;58.50;;;;;;4931693;28;75185;-66
2021/03/13 06:01:32;;;;;;;;;;;5.80;58.40;;;;;;4931840;28;75094;-66
2021/03/13 06:03:58;;;;;;;;;;;5.80;58.60;;;;;;4931721;28;74921;-66
2021/03/13 06:06:25;;;;;;;;;;;5.80;58.70;;;;;;4930061;28;77651;-66
2021/03/13 06:08:51;;;;;;;;;;;5.80;58.40;;;;;;4931713;28;75001;-64
2021/03/13 06:11:17;;;;;;;;;;;5.80;58.50;;;;;;4931658;28;75283;-66
2021/03/13 06:13:43;;;;;;;;;;;5.80;58.80;;;;;;4931754;28;75266;-64
2021/03/13 06:16:09;;;;;;;;;;;5.70;58.20;;;;;;4931664;28;74464;-68
2021/03/13 06:19:04;;;;;;;;;;;5.80;58.20;;;;;;4931237;28;74998;-67
2021/03/13 06:21:30;;;;;;;;;;;5.80;58.50;;;;;;4925650;28;74626;-66
2021/03/13 06:23:57;;;;;;;;;;;5.80;58.40;;;;;;4934160;28;74307;-66
2021/03/13 06:26:23;;;;;;;;;;;5.80;58.60;;;;;;4935463;28;74498;-64
2021/03/13 06:28:50;;;;;;;;;;;5.80;58.40;;;;;;4932777;28;74441;-66
2021/03/13 06:31:20;;;;;;;;;;;5.90;58.20;;;;;;4931448;28;75743;-65
2021/03/13 06:33:46;;;;;;;;;;;5.90;58.80;;;;;;4931870;28;74406;-65
2021/03/13 06:36:18;;;;;;;;;;;5.80;58.50;;;;;;4931681;28;75117;-66
2021/03/13 06:38:44;;;;;;;;;;;5.90;58.30;;;;;;4931176;28;75192;-65
2021/03/13 06:41:16;;;;;;;;;;;5.90;58.30;;;;;;4931368;28;75741;-67
2021/03/13 06:43:42;;;;;;;;;;;5.80;58.20;;;;;;4929726;28;77802;-67
2021/03/13 06:46:12;;;;;;;;;;;5.90;58.50;;;;;;4931134;28;74676;-68
2021/03/13 06:48:39;;;;;;;;;;;5.90;58.40;;;;;;4931282;28;75140;-66
2021/03/13 06:51:24;;;;;;;;;;;5.90;58.80;;;;;;4929780;28;75599;-70
2021/03/13 06:54:10;;;;;;;;;;;5.90;59.20;;;;;;4930924;28;75121;-67
2021/03/13 06:56:40;;;;;;;;;;;5.90;59.00;;;;;;4931175;28;75428;-72
2021/03/13 06:59:27;;;;;;;;;;;5.90;59.10;;;;;;4930585;28;75195;-70
2021/03/13 07:01:56;;;;;;;;;;;5.90;59.20;;;;;;4930882;28;74958;-65
2021/03/13 07:04:32;;;;;;;;;;;5.90;58.80;;;;;;4931106;28;75010;-70
2021/03/13 07:06:58;;;;;;;;;;;5.90;58.70;;;;;;4930642;28;75205;-69
2021/03/13 07:09:44;;;;;;;;;;;5.90;58.50;;;;;;4930790;28;75200;-70
2021/03/13 07:12:22;;;;;;;;;;;6.00;58.50;;;;;;4926034;28;75317;-70
2021/03/13 07:14:47;;;;;;;;;;;6.10;58.30;;;;;;4930501;28;75253;-69
2021/03/13 07:17:14;;;;;;;;;;;6.10;58.10;;;;;;4930491;28;75152;-67
2021/03/13 07:19:41;;;;;;;;;;;6.10;58.60;;;;;;4930879;28;75802;-68
2021/03/13 07:22:06;;;;;;;;;;;6.10;58.10;;;;;;4930739;28;75016;-66
2021/03/13 07:24:32;;;;;;;;;;;6.20;58.20;;;;;;4929191;28;76189;-67
2021/03/13 07:26:58;;;;;;;;;;;6.20;59.10;;;;;;4930946;28;75533;-66
2021/03/13 07:29:24;;;;;;;;;;;6.10;59.20;;;;;;4930931;28;75673;-66
2021/03/13 07:31:55;;;;;;;;;;;6.00;60.10;;;;;;4933894;28;74861;-66
2021/03/13 07:34:23;;;;;;;;;;;5.90;60.60;;;;;;4933652;28;75205;-65
2021/03/13 07:36:52;;;;;;;;;;;6.00;59.80;;;;;;4933835;28;75147;-67
2021/03/13 07:39:18;;;;;;;;;;;6.10;59.30;;;;;;4933523;28;75143;-68
2021/03/13 07:41:48;;;;;;;;;;;6.30;58.80;;;;;;4933453;28;74512;-67
2021/03/13 07:44:14;;;;;;;;;;;6.40;58.30;;;;;;4933477;28;75098;-69
2021/03/13 07:46:41;;;;;;;;;;;6.50;57.70;;;;;;4933465;28;74602;-68
2021/03/13 07:49:07;;;;;;;;;;;6.60;57.30;;;;;;4933509;28;75781;-67
2021/03/13 07:51:33;;;;;;;;;;;6.80;56.90;;;;;;4933459;28;75209;-67
2021/03/13 07:54:00;;;;;;;;;;;6.80;56.90;;;;;;4931653;28;78060;-66
2021/03/13 07:56:26;;;;;;;;;;;6.90;56.80;;;;;;4933422;28;75892;-68
2021/03/13 07:58:51;;;;;;;;;;;7.00;56.40;;;;;;4933160;28;75081;-68
2021/03/13 08:01:37;;;;;;;;;;;7.20;56.30;;;;;;4932615;28;77193;-74
2021/03/13 08:04:02;;;;;;;;;;;7.30;56.00;;;;;;4931014;28;77528;-65
2021/03/13 08:06:48;;;;;;;;;;;7.40;55.80;;;;;;4932975;28;75114;-65
2021/03/13 08:09:23;;;;;;;;;;;7.50;55.60;;;;;;4932849;28;75203;-64
2021/03/13 08:11:49;;;;;;;;;;;7.60;55.70;;;;;;4933361;28;75375;-66
2021/03/13 08:14:29;;;;;;;;;;;7.70;55.30;;;;;;4932820;28;75738;-65
2021/03/13 08:17:04;;;;;;;;;;;7.90;55.30;;;;;;5000735;28;74642;-64
2021/03/13 08:19:37;;;;;;;;;;;8.00;54.80;;;;;;5034384;28;75123;-65
2021/03/13 08:22:14;;;;;;;;;;;8.20;54.50;;;;;;5034340;28;74427;-64
2021/03/13 08:25:00;;;;;;;;;;;8.40;54.20;;;;;;5034580;28;75206;-64
2021/03/13 08:27:34;;;;;;;;;;;8.50;53.70;;;;;;5032461;28;78306;-65
2021/03/13 08:30:01;;;;;;;;;;;8.60;53.80;;;;;;5034520;28;75174;-66
2021/03/13 08:32:45;;;;;;;;;;;8.80;53.30;;;;;;5034636;28;74455;-64
2021/03/13 08:35:11;;;;;;;;;;;8.90;53.10;;;;;;5034841;28;74460;-68
2021/03/13 08:37:47;;;;;;;;;;;9.00;52.40;;;;;;5034501;28;74998;-64
2021/03/13 08:40:25;;;;;;;;;;;9.10;52.20;;;;;;5034251;28;75267;-68
2021/03/13 08:42:51;;;;;;;;;;;9.20;52.40;;;;;;4977127;28;76305;-64
2021/03/13 08:45:17;;;;;;;;;;;9.30;52.20;;;;;;4934274;28;75795;-64
2021/03/13 08:47:44;;;;;;;;;;;9.40;52.00;;;;;;4930319;28;76349;-65
2021/03/13 08:50:11;;;;;;;;;;;9.50;51.40;;;;;;4926468;28;75847;-66
2021/03/13 08:52:36;;;;;;;;;;;9.50;50.90;;;;;;4925833;28;75225;-65
2021/03/13 08:55:03;;;;;;;;;;;9.60;51.00;;;;;;4925992;28;76076;-67
2021/03/13 08:57:29;;;;;;;;;;;9.80;50.90;;;;;;4940774;28;76262;-66
2021/03/13 08:59:54;;;;;;;;;;;9.80;50.20;;;;;;4951940;28;75149;-65
2021/03/13 09:02:21;;;;;;;;;;;9.90;50.60;;;;;;4950280;28;74996;-68
2021/03/13 09:04:50;;;;;;;;;;;10.00;50.50;;;;;;4952050;28;74447;-67
2021/03/13 09:07:17;;;;;;;;;;;10.10;50.00;;;;;;4951935;28;75079;-70
2021/03/13 09:09:42;;;;;;;;;;;10.30;50.00;;;;;;4951894;28;75502;-68
2021/03/13 09:12:12;;;;;;;;;;;10.40;48.80;;;;;;4950831;28;77187;-66
2021/03/13 09:14:39;;;;;;;;;;;10.40;49.10;;;;;;4951606;28;74429;-67
2021/03/13 09:17:12;;;;;;;;;;;10.50;49.10;;;;;;4951674;28;75169;-67
2021/03/13 09:19:38;;;;;;;;;;;10.70;48.60;;;;;;4951187;28;75726;-67
2021/03/13 09:22:08;;;;;;;;;;;10.80;47.70;;;;;;4951093;28;76454;-69
2021/03/13 09:24:34;;;;;;;;;;;10.90;48.20;;;;;;4950053;28;75718;-68
2021/03/13 09:27:00;;;;;;;;;;;11.10;47.70;;;;;;4951634;28;75153;-68
2021/03/13 09:29:42;;;;;;;;;;;11.30;46.80;;;;;;4951426;28;75422;-68
2021/03/13 09:32:08;;;;;;;;;;;11.40;46.90;;;;;;4951575;28;75192;-67
2021/03/13 09:34:38;;;;;;;;;;;11.60;46.60;;;;;;4951617;28;76298;-69
2021/03/13 09:37:10;;;;;;;;;;;11.90;46.60;;;;;;4951261;28;75525;-70
2021/03/13 09:39:35;;;;;;;;;;;12.00;46.00;;;;;;4950252;28;77294;-67
2021/03/13 09:42:02;;;;;;;;;;;12.30;45.70;;;;;;4951497;28;74466;-67
2021/03/13 09:44:35;;;;;;;;;;;12.60;44.00;;;;;;4951484;28;75763;-67
2021/03/13 09:47:08;;;;;;;;;;;12.80;44.60;;;;;;4951222;28;74685;-69
2021/03/13 09:49:34;;;;;;;;;;;13.00;43.90;;;;;;4951415;28;75098;-66
2021/03/13 09:52:00;;;;;;;;;;;13.40;43.50;;;;;;4949492;28;75595;-68
2021/03/13 09:54:25;;;;;;;;;;;13.60;42.60;;;;;;4949629;28;75117;-68
2021/03/13 09:56:51;;;;;;;;;;;13.80;42.70;;;;;;4949910;28;78032;-67
2021/03/13 09:59:17;;;;;;;;;;;13.90;42.00;;;;;;4951106;28;75178;-68
2021/03/13 10:01:43;;;;;;;;;;;14.10;41.90;;;;;;4951254;28;75387;-69
2021/03/13 10:04:08;;;;;;;;;;;14.40;41.40;;;;;;4951035;28;75400;-67
2021/03/13 10:06:34;;;;;;;;;;;14.60;40.20;;;;;;4951067;28;75185;-69
2021/03/13 10:08:59;;;;;;;;;;;14.90;40.40;;;;;;4951321;28;75298;-67
2021/03/13 10:11:42;;;;;;;;;;;15.10;39.80;;;;;;4950731;28;75317;-67
2021/03/13 10:14:18;;;;;;;;;;;15.30;39.30;;;;;;4949670;28;76807;-68
2021/03/13 10:16:44;;;;;;;;;;;15.40;39.10;;;;;;4949145;28;76123;-66
2021/03/13 10:19:29;;;;;;;;;;;15.70;38.70;;;;;;4951553;28;75060;-72
2021/03/13 10:22:05;;;;;;;;;;;15.90;38.90;;;;;;4948873;28;75840;-65
2021/03/13 10:24:31;;;;;;;;;;;16.30;37.80;;;;;;4949395;28;75775;-65
2021/03/13 10:27:04;;;;;;;;;;;16.40;36.70;;;;;;4949741;28;74875;-71
2021/03/13 10:29:29;;;;;;;;;;;16.70;37.00;;;;;;4948919;28;77572;-71
2021/03/13 10:32:00;;;;;;;;;;;17.00;36.80;;;;;;4948954;28;78546;-70
2021/03/13 10:34:32;;;;;;;;;;;17.40;36.20;;;;;;4949951;28;74766;-70
2021/03/13 10:36:57;;;;;;;;;;;17.70;34.80;;;;;;4949042;28;76414;-73
2021/03/13 10:39:23;;;;;;;;;;;17.90;35.30;;;;;;4948875;28;77232;-69
2021/03/13 10:41:50;;;;;;;;;;;18.30;34.30;;;;;;4950571;28;76934;-68
2021/03/13 10:44:16;;;;;;;;;;;18.60;34.30;;;;;;4948475;28;76111;-72
2021/03/13 10:46:42;;;;;;;;;;;18.90;33.80;;;;;;4949016;28;75698;-70
2021/03/13 10:49:07;;;;;;;;;;;19.00;32.10;;;;;;4948843;28;76347;-68
2021/03/13 10:51:41;;;;;;;;;;;19.10;33.20;;;;;;4950131;28;75761;-70
2021/03/13 10:54:18;;;;;;;;;;;19.50;33.00;;;;;;4950090;28;75166;-70
2021/03/13 10:56:43;;;;;;;;;;;20.20;31.90;;;;;;4948801;28;75376;-70
2021/03/13 10:59:09;;;;;;;;;;;20.70;31.40;;;;;;4950451;28;74443;-71
2021/03/13 11:01:35;;;;;;;;;;;21.20;30.10;;;;;;4964800;28;76096;-69
2021/03/13 11:04:01;;;;;;;;;;;21.50;30.90;;;;;;4951824;28;75319;-71
2021/03/13 11:06:30;;;;;;;;;;;22.00;30.20;;;;;;4952107;28;76566;-70
2021/03/13 11:08:57;;;;;;;;;;;22.70;29.30;;;;;;4951811;28;74758;-69
2021/03/13 11:11:23;;;;;;;;;;;23.30;28.80;;;;;;4968432;27;75408;-73
2021/03/13 11:13:49;;;;;;;;;;;24.00;27.40;;;;;;4951654;28;76819;-68
2021/03/13 11:16:14;;;;;;;;;;;24.50;27.50;;;;;;4951363;28;76328;-69
2021/03/13 11:18:40;;;;;;;;;;;24.80;25.10;;;;;;4951652;28;77019;-70
2021/03/13 11:21:06;;;;;;;;;;;24.90;25.00;;;;;;4951576;28;75441;-71
2021/03/13 11:23:31;;;;;;;;;;;24.80;25.20;;;;;;4951595;28;77235;-73
2021/03/13 11:25:57;;;;;;;;;;;25.10;25.40;;;;;;4952864;28;74563;-73
2021/03/13 11:28:23;;;;;;;;;;;25.40;24.40;;;;;;4953213;28;75340;-70
2021/03/13 11:30:48;;;;;;;;;;;26.00;23.50;;;;;;4952710;28;75283;-70
2021/03/13 11:33:14;;;;;;;;;;;26.00;23.40;;;;;;4951614;28;78009;-69
2021/03/13 11:35:41;;;;;;;;;;;26.20;23.90;;;;;;4952864;28;75104;-69
2021/03/13 11:38:07;;;;;;;;;;;27.20;22.80;;;;;;4951297;28;77799;-69
2021/03/13 11:40:32;;;;;;;;;;;27.80;22.60;;;;;;4951402;28;77600;-68
2021/03/13 11:43:00;;;;;;;;;;;27.70;22.70;;;;;;4951422;28;77103;-71
2021/03/13 11:45:26;;;;;;;;;;;28.00;21.70;;;;;;4950910;28;75253;-72
2021/03/13 11:47:55;;;;;;;;;;;28.00;22.00;;;;;;4951138;28;75264;-70
2021/03/13 11:50:21;;;;;;;;;;;28.50;21.70;;;;;;4951306;28;77283;-72
2021/03/13 11:52:47;;;;;;;;;;;29.70;21.30;;;;;;4952684;28;75240;-70
2021/03/13 11:55:13;;;;;;;;;;;30.00;20.80;;;;;;4951158;28;75927;-72
2021/03/13 11:57:39;;;;;;;;;;;30.50;20.00;;;;;;4953158;28;75281;-67
2021/03/13 12:00:05;;;;;;;;;;;30.90;19.90;;;;;;4950758;28;76221;-66
2021/03/13 12:02:31;;;;;;;;;;;30.80;18.80;;;;;;4952709;28;76692;-73
2021/03/13 12:04:56;;;;;;;;;;;30.60;19.60;;;;;;4951124;28;76463;-72
2021/03/13 12:07:22;;;;;;;;;;;31.00;18.80;;;;;;4951872;28;76291;-70
2021/03/13 12:09:48;;;;;;;;;;;30.60;18.30;;;;;;4951358;28;75402;-69
2021/03/13 12:12:13;;;;;;;;;;;29.80;18.20;;;;;;4952983;28;75058;-69
2021/03/13 12:14:39;;;;;;;;;;;30.00;18.50;;;;;;4952614;28;74438;-71
2021/03/13 12:17:07;;;;;;;;;;;31.00;18.30;;;;;;4952528;28;75221;-70
2021/03/13 12:19:32;;;;;;;;;;;31.30;17.90;;;;;;4951273;28;76426;-72
2021/03/13 12:21:59;;;;;;;;;;;32.20;18.10;;;;;;4952986;28;74647;-73
2021/03/13 12:24:25;;;;;;;;;;;34.00;16.20;;;;;;4952763;28;77622;-70
2021/03/13 12:26:51;;;;;;;;;;;34.50;14.80;;;;;;4951090;28;76644;-72
2021/03/13 12:29:17;;;;;;;;;;;33.40;15.40;;;;;;4951631;28;77014;-70
2021/03/13 12:31:42;;;;;;;;;;;32.00;16.40;;;;;;4950711;28;75671;-73
2021/03/13 12:34:09;;;;;;;;;;;32.30;15.60;;;;;;4950913;28;75046;-73
2021/03/13 12:36:34;;;;;;;;;;;31.60;16.50;;;;;;4951976;28;75191;-70
2021/03/13 12:39:00;;;;;;;;;;;30.70;17.40;;;;;;4951643;28;75620;-70
2021/03/13 12:41:25;;;;;;;;;;;30.00;18.00;;;;;;4950484;28;78025;-67
2021/03/13 12:43:51;;;;;;;;;;;29.70;17.90;;;;;;4952639;28;74433;-69
2021/03/13 12:46:17;;;;;;;;;;;28.70;18.30;;;;;;4966371;28;75416;-71
2021/03/13 12:48:43;;;;;;;;;;;27.90;18.60;;;;;;4952637;28;75085;-70
2021/03/13 12:51:09;;;;;;;;;;;27.80;19.20;;;;;;4951960;28;75025;-73
2021/03/13 12:53:35;;;;;;;;;;;28.00;19.60;;;;;;4950788;28;77102;-70
2021/03/13 12:56:00;;;;;;;;;;;27.30;20.20;;;;;;4950225;28;76374;-70
2021/03/13 12:58:26;;;;;;;;;;;26.40;20.10;;;;;;4950346;28;76429;-71
2021/03/13 13:00:51;;;;;;;;;;;25.30;21.40;;;;;;4951973;28;74478;-68
2021/03/13 13:03:17;;;;;;;;;;;25.10;22.40;;;;;;4952076;28;75377;-70
2021/03/13 13:05:43;;;;;;;;;;;25.70;22.20;;;;;;4950291;28;75285;-70
2021/03/13 13:08:08;;;;;;;;;;;26.80;21.70;;;;;;4951566;28;75231;-66
2021/03/13 13:10:34;;;;;;;;;;;27.70;20.70;;;;;;4951881;28;75058;-70
2021/03/13 13:13:00;;;;;;;;;;;27.50;20.30;;;;;;4951705;28;75271;-70
2021/03/13 13:15:25;;;;;;;;;;;28.70;19.90;;;;;;4950385;28;76091;-65
2021/03/13 13:17:51;;;;;;;;;;;29.50;17.80;;;;;;4951644;28;76128;-62
2021/03/13 13:20:18;;;;;;;;;;;29.90;16.70;;;;;;4950622;28;76888;-62
2021/03/13 13:22:44;;;;;;;;;;;29.30;17.50;;;;;;4951111;28;76457;-65
2021/03/13 13:25:10;;;;;;;;;;;29.90;17.40;;;;;;4951444;28;74427;-62
2021/03/13 13:27:36;;;;;;;;;;;31.40;16.30;;;;;;4950284;28;75204;-65
2021/03/13 13:30:04;;;;;;;;;;;31.10;16.50;;;;;;4950421;28;76654;-61
2021/03/13 13:32:29;;;;;;;;;;;31.20;15.40;;;;;;4950961;28;75369;-65
2021/03/13 13:34:55;;;;;;;;;;;31.30;15.40;;;;;;4951476;28;75349;-67
2021/03/13 13:37:21;;;;;;;;;;;31.50;15.90;;;;;;4951000;28;76403;-65
2021/03/13 13:39:47;;;;;;;;;;;32.40;15.00;;;;;;4949518;28;77801;-61
2021/03/13 13:42:13;;;;;;;;;;;31.60;15.00;;;;;;4951325;28;76614;-68
2021/03/13 13:44:38;;;;;;;;;;;29.20;16.50;;;;;;4951411;28;75166;-66
2021/03/13 13:47:04;;;;;;;;;;;27.80;17.90;;;;;;4950669;28;76261;-63
2021/03/13 13:49:33;;;;;;;;;;;26.80;18.70;;;;;;4950909;28;75288;-65
2021/03/13 13:51:58;;;;;;;;;;;26.10;19.60;;;;;;4951070;28;75271;-66
2021/03/13 13:54:26;;;;;;;;;;;26.80;19.30;;;;;;4950304;28;75328;-62
2021/03/13 13:56:51;;;;;;;;;;;28.20;18.10;;;;;;4950592;28;75499;-63
2021/03/13 13:59:17;;;;;;;;;;;28.70;17.00;;;;;;4951231;28;75179;-64
2021/03/13 14:01:42;;;;;;;;;;;30.30;16.50;;;;;;4951512;28;74633;-67
2021/03/13 14:04:08;;;;;;;;;;;30.90;15.60;;;;;;4950921;28;76514;-66
2021/03/13 14:06:34;;;;;;;;;;;29.90;16.30;;;;;;4950905;28;74476;-63
2021/03/13 14:08:59;;;;;;;;;;;29.20;16.70;;;;;;4950860;28;74393;-62
2021/03/13 14:11:25;;;;;;;;;;;29.50;17.30;;;;;;4950621;28;75336;-62
2021/03/13 14:13:50;;;;;;;;;;;29.70;17.30;;;;;;4950951;28;76409;-65
2021/03/13 14:16:16;;;;;;;;;;;30.40;17.20;;;;;;4950436;28;75368;-63
2021/03/13 14:18:42;;;;;;;;;;;31.60;16.40;;;;;;4950656;28;75023;-63
2021/03/13 14:21:07;;;;;;;;;;;31.90;16.40;;;;;;4950736;28;75136;-66
2021/03/13 14:23:33;;;;;;;;;;;31.60;15.50;;;;;;4950518;28;75103;-63
2021/03/13 14:25:58;;;;;;;;;;;30.90;16.20;;;;;;4949191;28;77810;-66